Terminal Aerodrome Forecast
Issued by NWS

Home | Current Version | Previous Version | Text Only | Print | Product List | Glossary On
Versions: 1 2 3 4 5 6 7 8 9 10 11 12 13 14 15 16 17 18 19 20 21 22 23 24 25 26 27 28 29
000
FTUS44 KFWD 250700 AAA
TAFGKY
TAF AMD
KGKY 250700Z 2507/2606 16006KT P6SM VCSH SCT070 BKN100 BKN280
      TEMPO 2508/2509 30010G20KT -RA BKN060
     FM250900 16012KT P6SM VCTS BKN015 OVC040CB
      TEMPO 2511/2515 5SM TSRA
     FM251600 13008KT P6SM VCSH SCT025 OVC100
     FM252200 01010KT P6SM VCTS BKN040CB OVC100
     FM260300 02012KT P6SM -SHRA OVC040=

USA.gov is the U.S. government's official web portal to all federal, state and local government web resources and services.